sensor_id;sensor_type;location;lat;lon;timestamp;P1;durP1;ratioP1;P2;durP2;ratioP2
39740;SDS011;25426;53.478;10.190;2023-07-13T12:48:38;6.72;;;2.83;;
39740;SDS011;25426;53.478;10.190;2023-07-13T12:51:11;5.53;;;2.55;;
39740;SDS011;25426;53.478;10.190;2023-07-13T12:53:47;6.85;;;2.60;;
39740;SDS011;25426;53.478;10.190;2023-07-13T12:56:21;5.00;;;2.67;;
39740;SDS011;25426;53.478;10.190;2023-07-13T12:58:56;6.57;;;2.90;;
39740;SDS011;25426;53.478;10.190;2023-07-13T13:01:29;4.78;;;2.42;;
39740;SDS011;25426;53.478;10.190;2023-07-13T13:04:02;4.25;;;2.10;;
39740;SDS011;25426;53.478;10.190;2023-07-13T13:06:38;5.82;;;2.58;;
39740;SDS011;25426;53.478;10.190;2023-07-13T13:09:11;5.55;;;2.53;;
39740;SDS011;25426;53.478;10.190;2023-07-13T13:11:43;3.77;;;2.43;;
39740;SDS011;25426;53.478;10.190;2023-07-13T13:14:14;5.00;;;2.33;;
39740;SDS011;25426;53.478;10.190;2023-07-13T13:16:46;5.18;;;2.17;;
39740;SDS011;25426;53.478;10.190;2023-07-13T13:19:25;6.77;;;2.50;;
39740;SDS011;25426;53.478;10.190;2023-07-13T13:21:57;4.50;;;2.63;;
39740;SDS011;25426;53.478;10.190;2023-07-13T13:24:29;3.53;;;1.70;;
39740;SDS011;25426;53.478;10.190;2023-07-13T13:26:59;5.53;;;2.20;;
39740;SDS011;25426;53.478;10.190;2023-07-13T13:29:30;3.60;;;2.07;;
39740;SDS011;25426;53.478;10.190;2023-07-13T13:32:02;4.22;;;1.98;;
39740;SDS011;25426;53.478;10.190;2023-07-13T13:34:33;3.17;;;1.60;;
39740;SDS011;25426;53.478;10.190;2023-07-13T13:37:04;3.30;;;1.67;;
39740;SDS011;25426;53.478;10.190;2023-07-13T13:39:40;2.93;;;1.70;;
39740;SDS011;25426;53.478;10.190;2023-07-13T13:42:11;2.72;;;1.80;;
39740;SDS011;25426;53.478;10.190;2023-07-13T13:44:42;3.13;;;1.63;;
39740;SDS011;25426;53.478;10.190;2023-07-13T13:47:19;3.17;;;1.80;;
39740;SDS011;25426;53.478;10.190;2023-07-13T13:49:57;2.22;;;1.50;;
39740;SDS011;25426;53.478;10.190;2023-07-13T13:52:27;2.40;;;1.67;;
39740;SDS011;25426;53.478;10.190;2023-07-13T13:54:58;2.37;;;1.67;;
39740;SDS011;25426;53.478;10.190;2023-07-13T13:57:29;2.57;;;1.50;;
39740;SDS011;25426;53.478;10.190;2023-07-13T14:00:01;2.97;;;1.80;;
39740;SDS011;25426;53.478;10.190;2023-07-13T14:02:35;2.63;;;1.87;;
39740;SDS011;25426;53.478;10.190;2023-07-13T14:05:06;2.10;;;1.80;;
39740;SDS011;25426;53.478;10.190;2023-07-13T14:07:38;3.23;;;1.93;;
39740;SDS011;25426;53.478;10.190;2023-07-13T14:10:13;2.85;;;1.90;;
39740;SDS011;25426;53.478;10.190;2023-07-13T14:12:45;4.65;;;1.85;;
39740;SDS011;25426;53.478;10.190;2023-07-13T14:15:20;3.80;;;2.05;;
39740;SDS011;25426;53.478;10.190;2023-07-13T14:17:53;4.40;;;2.00;;
39740;SDS011;25426;53.478;10.190;2023-07-13T14:20:25;3.60;;;2.25;;
39740;SDS011;25426;53.478;10.190;2023-07-13T14:22:55;3.35;;;1.90;;
39740;SDS011;25426;53.478;10.190;2023-07-13T14:25:26;2.57;;;2.00;;
39740;SDS011;25426;53.478;10.190;2023-07-13T14:27:57;4.03;;;2.30;;
39740;SDS011;25426;53.478;10.190;2023-07-13T14:30:34;3.88;;;2.30;;
39740;SDS011;25426;53.478;10.190;2023-07-13T14:33:08;4.93;;;2.20;;
39740;SDS011;25426;53.478;10.190;2023-07-13T14:35:39;3.53;;;2.17;;
39740;SDS011;25426;53.478;10.190;2023-07-13T14:38:13;4.55;;;2.50;;
39740;SDS011;25426;53.478;10.190;2023-07-13T14:40:47;3.22;;;2.30;;
39740;SDS011;25426;53.478;10.190;2023-07-13T14:43:17;6.20;;;2.50;;
39740;SDS011;25426;53.478;10.190;2023-07-13T14:45:49;3.10;;;2.10;;
39740;SDS011;25426;53.478;10.190;2023-07-13T14:48:21;3.17;;;2.10;;
39740;SDS011;25426;53.478;10.190;2023-07-13T14:50:57;3.63;;;1.90;;
39740;SDS011;25426;53.478;10.190;2023-07-13T14:53:28;2.67;;;1.73;;
39740;SDS011;25426;53.478;10.190;2023-07-13T14:55:58;5.50;;;2.23;;
39740;SDS011;25426;53.478;10.190;2023-07-13T14:58:29;3.13;;;2.00;;
39740;SDS011;25426;53.478;10.190;2023-07-13T15:01:02;3.93;;;2.03;;
39740;SDS011;25426;53.478;10.190;2023-07-13T15:03:32;3.38;;;2.00;;
39740;SDS011;25426;53.478;10.190;2023-07-13T15:06:03;3.45;;;1.90;;
39740;SDS011;25426;53.478;10.190;2023-07-13T15:08:34;2.92;;;1.80;;
39740;SDS011;25426;53.478;10.190;2023-07-13T15:11:06;2.67;;;2.08;;
39740;SDS011;25426;53.478;10.190;2023-07-13T15:13:43;2.83;;;1.75;;
39740;SDS011;25426;53.478;10.190;2023-07-13T15:16:16;3.25;;;2.00;;
39740;SDS011;25426;53.478;10.190;2023-07-13T15:18:48;3.03;;;1.80;;
39740;SDS011;25426;53.478;10.190;2023-07-13T15:21:20;3.33;;;1.60;;
39740;SDS011;25426;53.478;10.190;2023-07-13T15:23:52;2.67;;;1.73;;
39740;SDS011;25426;53.478;10.190;2023-07-13T15:26:24;3.55;;;1.75;;
39740;SDS011;25426;53.478;10.190;2023-07-13T15:28:54;3.43;;;2.00;;
39740;SDS011;25426;53.478;10.190;2023-07-13T15:31:25;4.73;;;2.00;;
39740;SDS011;25426;53.478;10.190;2023-07-13T15:34:04;4.15;;;1.73;;
39740;SDS011;25426;53.478;10.190;2023-07-13T15:36:43;3.13;;;1.77;;
39740;SDS011;25426;53.478;10.190;2023-07-13T15:39:14;5.00;;;2.20;;
39740;SDS011;25426;53.478;10.190;2023-07-13T15:41:46;3.17;;;2.08;;
39740;SDS011;25426;53.478;10.190;2023-07-13T15:44:24;3.50;;;1.83;;
39740;SDS011;25426;53.478;10.190;2023-07-13T15:47:00;3.20;;;2.03;;
39740;SDS011;25426;53.478;10.190;2023-07-13T15:49:33;4.15;;;2.10;;
39740;SDS011;25426;53.478;10.190;2023-07-13T15:52:03;4.35;;;2.08;;
39740;SDS011;25426;53.478;10.190;2023-07-13T15:54:34;3.23;;;1.30;;
39740;SDS011;25426;53.478;10.190;2023-07-13T15:57:08;2.40;;;1.40;;
39740;SDS011;25426;53.478;10.190;2023-07-13T15:59:40;2.50;;;1.77;;
39740;SDS011;25426;53.478;10.190;2023-07-13T16:02:18;4.25;;;1.83;;
39740;SDS011;25426;53.478;10.190;2023-07-13T16:04:50;2.28;;;1.67;;
39740;SDS011;25426;53.478;10.190;2023-07-13T16:07:21;2.95;;;1.60;;
39740;SDS011;25426;53.478;10.190;2023-07-13T16:09:52;3.47;;;1.47;;
39740;SDS011;25426;53.478;10.190;2023-07-13T16:12:23;3.13;;;1.45;;
39740;SDS011;25426;53.478;10.190;2023-07-13T16:14:53;2.60;;;1.50;;
39740;SDS011;25426;53.478;10.190;2023-07-13T16:17:24;3.80;;;1.50;;
39740;SDS011;25426;53.478;10.190;2023-07-13T16:19:55;3.20;;;1.33;;
39740;SDS011;25426;53.478;10.190;2023-07-13T16:22:26;3.33;;;1.30;;
39740;SDS011;25426;53.478;10.190;2023-07-13T16:24:57;3.00;;;1.35;;
39740;SDS011;25426;53.478;10.190;2023-07-13T16:27:29;2.03;;;1.15;;
39740;SDS011;25426;53.478;10.190;2023-07-13T16:29:59;2.13;;;1.00;;
39740;SDS011;25426;53.478;10.190;2023-07-13T16:32:30;2.20;;;1.10;;
39740;SDS011;25426;53.478;10.190;2023-07-13T16:35:01;2.63;;;1.37;;
39740;SDS011;25426;53.478;10.190;2023-07-13T16:37:31;2.88;;;1.38;;
39740;SDS011;25426;53.478;10.190;2023-07-13T16:40:02;1.70;;;1.30;;
39740;SDS011;25426;53.478;10.190;2023-07-13T16:42:39;2.92;;;1.30;;
39740;SDS011;25426;53.478;10.190;2023-07-13T16:45:11;4.40;;;1.40;;
39740;SDS011;25426;53.478;10.190;2023-07-13T16:47:42;1.50;;;1.20;;
39740;SDS011;25426;53.478;10.190;2023-07-13T16:50:15;2.03;;;1.27;;
39740;SDS011;25426;53.478;10.190;2023-07-13T16:52:46;2.75;;;1.50;;
39740;SDS011;25426;53.478;10.190;2023-07-13T16:55:19;3.63;;;1.23;;
39740;SDS011;25426;53.478;10.190;2023-07-13T16:57:57;2.17;;;1.30;;
39740;SDS011;25426;53.478;10.190;2023-07-13T17:00:31;3.17;;;1.55;;
39740;SDS011;25426;53.478;10.190;2023-07-13T17:03:04;3.67;;;1.35;;
39740;SDS011;25426;53.478;10.190;2023-07-13T17:05:39;2.58;;;1.40;;
39740;SDS011;25426;53.478;10.190;2023-07-13T17:08:17;2.42;;;1.58;;
39740;SDS011;25426;53.478;10.190;2023-07-13T17:10:55;2.53;;;1.15;;
39740;SDS011;25426;53.478;10.190;2023-07-13T17:13:29;2.33;;;1.20;;
39740;SDS011;25426;53.478;10.190;2023-07-13T17:16:00;3.50;;;1.30;;
39740;SDS011;25426;53.478;10.190;2023-07-13T17:18:31;3.60;;;1.40;;
39740;SDS011;25426;53.478;10.190;2023-07-13T17:21:07;2.33;;;1.20;;
39740;SDS011;25426;53.478;10.190;2023-07-13T17:23:40;2.47;;;1.10;;
39740;SDS011;25426;53.478;10.190;2023-07-13T17:26:11;4.00;;;1.50;;
39740;SDS011;25426;53.478;10.190;2023-07-13T17:28:41;4.05;;;1.88;;
39740;SDS011;25426;53.478;10.190;2023-07-13T17:31:16;2.47;;;1.40;;
39740;SDS011;25426;53.478;10.190;2023-07-13T17:33:48;2.55;;;1.55;;
39740;SDS011;25426;53.478;10.190;2023-07-13T17:36:20;3.83;;;1.45;;
39740;SDS011;25426;53.478;10.190;2023-07-13T17:38:50;2.07;;;1.20;;
39740;SDS011;25426;53.478;10.190;2023-07-13T17:41:26;3.20;;;1.48;;
39740;SDS011;25426;53.478;10.190;2023-07-13T17:43:57;2.20;;;1.00;;
39740;SDS011;25426;53.478;10.190;2023-07-13T17:46:29;2.85;;;1.30;;
39740;SDS011;25426;53.478;10.190;2023-07-13T17:49:01;3.80;;;1.35;;
39740;SDS011;25426;53.478;10.190;2023-07-13T17:51:32;2.53;;;1.40;;
39740;SDS011;25426;53.478;10.190;2023-07-13T17:54:04;4.28;;;1.65;;
39740;SDS011;25426;53.478;10.190;2023-07-13T17:56:43;1.55;;;1.20;;
39740;SDS011;25426;53.478;10.190;2023-07-13T17:59:14;2.63;;;1.40;;
39740;SDS011;25426;53.478;10.190;2023-07-13T18:01:45;4.13;;;1.90;;
39740;SDS011;25426;53.478;10.190;2023-07-13T18:04:16;2.50;;;1.20;;
39740;SDS011;25426;53.478;10.190;2023-07-13T18:06:52;2.80;;;1.50;;
39740;SDS011;25426;53.478;10.190;2023-07-13T18:09:25;2.50;;;1.40;;
39740;SDS011;25426;53.478;10.190;2023-07-13T18:11:56;2.33;;;1.13;;
39740;SDS011;25426;53.478;10.190;2023-07-13T18:14:28;2.22;;;1.20;;
39740;SDS011;25426;53.478;10.190;2023-07-13T18:17:01;3.45;;;1.20;;
39740;SDS011;25426;53.478;10.190;2023-07-13T18:22:11;3.10;;;1.60;;
39740;SDS011;25426;53.478;10.190;2023-07-13T18:24:43;2.08;;;1.33;;
39740;SDS011;25426;53.478;10.190;2023-07-13T18:27:14;2.53;;;1.30;;
39740;SDS011;25426;53.478;10.190;2023-07-13T18:29:45;3.05;;;1.65;;
39740;SDS011;25426;53.478;10.190;2023-07-13T18:32:17;2.63;;;1.23;;
39740;SDS011;25426;53.478;10.190;2023-07-13T18:34:50;2.13;;;1.20;;
39740;SDS011;25426;53.478;10.190;2023-07-13T18:37:22;3.22;;;1.23;;
39740;SDS011;25426;53.478;10.190;2023-07-13T18:39:52;2.10;;;1.10;;
39740;SDS011;25426;53.478;10.190;2023-07-13T18:42:23;2.78;;;1.10;;
39740;SDS011;25426;53.478;10.190;2023-07-13T18:44:54;2.67;;;1.20;;
39740;SDS011;25426;53.478;10.190;2023-07-13T18:47:26;3.83;;;1.10;;
39740;SDS011;25426;53.478;10.190;2023-07-13T18:50:20;2.83;;;1.20;;
39740;SDS011;25426;53.478;10.190;2023-07-13T18:52:54;2.60;;;1.25;;
39740;SDS011;25426;53.478;10.190;2023-07-13T18:55:25;2.00;;;1.40;;
39740;SDS011;25426;53.478;10.190;2023-07-13T18:57:55;2.30;;;1.10;;
39740;SDS011;25426;53.478;10.190;2023-07-13T19:00:28;2.63;;;1.20;;
39740;SDS011;25426;53.478;10.190;2023-07-13T19:03:00;2.80;;;1.25;;
39740;SDS011;25426;53.478;10.190;2023-07-13T19:05:33;1.88;;;1.30;;
39740;SDS011;25426;53.478;10.190;2023-07-13T19:08:04;1.65;;;1.10;;
39740;SDS011;25426;53.478;10.190;2023-07-13T19:10:45;2.88;;;1.27;;
39740;SDS011;25426;53.478;10.190;2023-07-13T19:13:19;2.33;;;1.00;;
39740;SDS011;25426;53.478;10.190;2023-07-13T19:16:00;3.05;;;1.25;;
39740;SDS011;25426;53.478;10.190;2023-07-13T19:18:31;2.23;;;1.37;;
39740;SDS011;25426;53.478;10.190;2023-07-13T19:21:02;1.85;;;0.98;;
39740;SDS011;25426;53.478;10.190;2023-07-13T19:23:55;2.03;;;1.00;;
39740;SDS011;25426;53.478;10.190;2023-07-13T19:26:30;2.20;;;1.30;;
39740;SDS011;25426;53.478;10.190;2023-07-13T19:29:01;2.45;;;1.10;;
39740;SDS011;25426;53.478;10.190;2023-07-13T19:31:33;2.95;;;1.40;;
39740;SDS011;25426;53.478;10.190;2023-07-13T19:36:39;2.27;;;1.40;;
39740;SDS011;25426;53.478;10.190;2023-07-13T19:39:42;1.48;;;1.10;;
39740;SDS011;25426;53.478;10.190;2023-07-13T19:42:11;1.52;;;1.20;;
39740;SDS011;25426;53.478;10.190;2023-07-13T19:44:47;2.42;;;1.20;;
39740;SDS011;25426;53.478;10.190;2023-07-13T19:47:18;1.63;;;1.00;;
39740;SDS011;25426;53.478;10.190;2023-07-13T19:49:50;3.13;;;1.50;;
39740;SDS011;25426;53.478;10.190;2023-07-13T19:52:22;2.77;;;1.40;;
39740;SDS011;25426;53.478;10.190;2023-07-13T19:54:57;2.83;;;1.30;;
39740;SDS011;25426;53.478;10.190;2023-07-13T19:57:28;3.17;;;1.33;;
39740;SDS011;25426;53.478;10.190;2023-07-13T19:59:59;2.53;;;1.25;;
39740;SDS011;25426;53.478;10.190;2023-07-13T20:02:32;2.63;;;1.40;;
39740;SDS011;25426;53.478;10.190;2023-07-13T20:05:03;1.80;;;1.42;;
39740;SDS011;25426;53.478;10.190;2023-07-13T20:07:38;2.67;;;1.30;;
39740;SDS011;25426;53.478;10.190;2023-07-13T20:10:22;3.70;;;1.60;;
39740;SDS011;25426;53.478;10.190;2023-07-13T20:13:00;2.97;;;1.90;;
39740;SDS011;25426;53.478;10.190;2023-07-13T20:15:31;2.20;;;1.53;;
39740;SDS011;25426;53.478;10.190;2023-07-13T20:18:02;2.75;;;1.30;;
39740;SDS011;25426;53.478;10.190;2023-07-13T20:20:35;2.35;;;1.65;;
39740;SDS011;25426;53.478;10.190;2023-07-13T20:23:15;1.77;;;1.48;;
39740;SDS011;25426;53.478;10.190;2023-07-13T20:25:47;2.53;;;1.48;;
39740;SDS011;25426;53.478;10.190;2023-07-13T20:28:18;3.97;;;1.57;;
39740;SDS011;25426;53.478;10.190;2023-07-13T20:30:51;2.55;;;1.50;;
39740;SDS011;25426;53.478;10.190;2023-07-13T20:33:24;2.03;;;1.50;;
39740;SDS011;25426;53.478;10.190;2023-07-13T20:36:00;4.60;;;2.05;;
39740;SDS011;25426;53.478;10.190;2023-07-13T20:38:33;2.35;;;1.85;;
39740;SDS011;25426;53.478;10.190;2023-07-13T20:41:03;3.88;;;1.65;;
39740;SDS011;25426;53.478;10.190;2023-07-13T20:43:34;5.50;;;2.03;;
39740;SDS011;25426;53.478;10.190;2023-07-13T20:46:08;3.20;;;1.80;;
39740;SDS011;25426;53.478;10.190;2023-07-13T20:48:43;2.92;;;1.85;;
39740;SDS011;25426;53.478;10.190;2023-07-13T20:51:18;2.10;;;1.90;;
39740;SDS011;25426;53.478;10.190;2023-07-13T20:53:49;2.57;;;2.00;;
39740;SDS011;25426;53.478;10.190;2023-07-13T20:56:25;3.45;;;2.00;;
39740;SDS011;25426;53.478;10.190;2023-07-13T20:58:57;2.40;;;1.83;;
39740;SDS011;25426;53.478;10.190;2023-07-13T21:01:28;2.88;;;2.17;;
39740;SDS011;25426;53.478;10.190;2023-07-13T21:04:04;3.83;;;1.77;;
39740;SDS011;25426;53.478;10.190;2023-07-13T21:06:35;3.92;;;2.15;;
39740;SDS011;25426;53.478;10.190;2023-07-13T21:09:14;3.70;;;2.30;;
39740;SDS011;25426;53.478;10.190;2023-07-13T21:11:47;4.18;;;2.05;;
39740;SDS011;25426;53.478;10.190;2023-07-13T21:14:17;2.93;;;2.20;;
39740;SDS011;25426;53.478;10.190;2023-07-13T21:16:54;2.65;;;2.15;;
39740;SDS011;25426;53.478;10.190;2023-07-13T21:19:25;2.97;;;2.08;;
39740;SDS011;25426;53.478;10.190;2023-07-13T21:21:56;3.38;;;2.63;;
39740;SDS011;25426;53.478;10.190;2023-07-13T21:24:29;3.08;;;1.90;;
39740;SDS011;25426;53.478;10.190;2023-07-13T21:26:59;2.70;;;2.30;;
39740;SDS011;25426;53.478;10.190;2023-07-13T21:29:31;3.20;;;2.42;;
39740;SDS011;25426;53.478;10.190;2023-07-13T21:32:02;3.33;;;2.58;;
39740;SDS011;25426;53.478;10.190;2023-07-13T21:34:35;4.10;;;2.95;;
39740;SDS011;25426;53.478;10.190;2023-07-13T21:37:08;2.83;;;2.47;;
39740;SDS011;25426;53.478;10.190;2023-07-13T21:39:48;3.55;;;2.50;;
39740;SDS011;25426;53.478;10.190;2023-07-13T21:42:21;3.13;;;2.72;;
39740;SDS011;25426;53.478;10.190;2023-07-13T21:44:52;4.00;;;2.70;;
39740;SDS011;25426;53.478;10.190;2023-07-13T21:47:22;4.13;;;3.43;;
39740;SDS011;25426;53.478;10.190;2023-07-13T21:49:53;3.75;;;2.88;;
39740;SDS011;25426;53.478;10.190;2023-07-13T21:52:23;4.33;;;2.60;;
39740;SDS011;25426;53.478;10.190;2023-07-13T21:54:54;5.10;;;2.83;;
39740;SDS011;25426;53.478;10.190;2023-07-13T21:57:24;3.95;;;2.53;;
39740;SDS011;25426;53.478;10.190;2023-07-13T21:59:58;4.93;;;3.20;;
39740;SDS011;25426;53.478;10.190;2023-07-13T22:02:29;4.77;;;3.23;;
39740;SDS011;25426;53.478;10.190;2023-07-13T22:04:59;3.23;;;2.30;;
39740;SDS011;25426;53.478;10.190;2023-07-13T22:07:30;6.87;;;3.00;;
39740;SDS011;25426;53.478;10.190;2023-07-13T22:10:00;3.38;;;3.08;;
39740;SDS011;25426;53.478;10.190;2023-07-13T22:12:31;3.67;;;3.37;;
39740;SDS011;25426;53.478;10.190;2023-07-13T22:15:01;3.80;;;3.00;;
39740;SDS011;25426;53.478;10.190;2023-07-13T22:17:33;3.83;;;3.42;;
39740;SDS011;25426;53.478;10.190;2023-07-13T22:20:04;3.92;;;3.20;;
39740;SDS011;25426;53.478;10.190;2023-07-13T22:22:37;3.67;;;3.17;;
39740;SDS011;25426;53.478;10.190;2023-07-13T22:25:08;4.63;;;3.50;;
39740;SDS011;25426;53.478;10.190;2023-07-13T22:27:38;4.30;;;3.07;;
39740;SDS011;25426;53.478;10.190;2023-07-13T22:30:10;5.07;;;4.03;;
39740;SDS011;25426;53.478;10.190;2023-07-13T22:32:43;5.25;;;4.13;;
39740;SDS011;25426;53.478;10.190;2023-07-13T22:35:14;6.45;;;3.85;;
39740;SDS011;25426;53.478;10.190;2023-07-13T22:37:48;4.30;;;3.90;;
39740;SDS011;25426;53.478;10.190;2023-07-13T22:40:18;5.25;;;2.72;;
39740;SDS011;25426;53.478;10.190;2023-07-13T22:42:49;6.47;;;4.00;;
39740;SDS011;25426;53.478;10.190;2023-07-13T22:45:19;5.30;;;4.80;;
39740;SDS011;25426;53.478;10.190;2023-07-13T22:47:50;6.50;;;5.07;;
39740;SDS011;25426;53.478;10.190;2023-07-13T22:50:20;7.68;;;5.80;;
39740;SDS011;25426;53.478;10.190;2023-07-13T22:52:51;5.67;;;5.13;;
39740;SDS011;25426;53.478;10.190;2023-07-13T22:55:22;6.17;;;5.33;;
39740;SDS011;25426;53.478;10.190;2023-07-13T22:57:52;7.30;;;5.38;;
39740;SDS011;25426;53.478;10.190;2023-07-13T23:00:23;6.43;;;4.00;;
39740;SDS011;25426;53.478;10.190;2023-07-13T23:02:54;8.57;;;4.80;;
39740;SDS011;25426;53.478;10.190;2023-07-13T23:05:25;6.13;;;3.87;;
39740;SDS011;25426;53.478;10.190;2023-07-13T23:07:55;5.18;;;4.47;;
39740;SDS011;25426;53.478;10.190;2023-07-13T23:10:26;6.00;;;3.97;;
39740;SDS011;25426;53.478;10.190;2023-07-13T23:12:57;6.47;;;4.90;;
39740;SDS011;25426;53.478;10.190;2023-07-13T23:15:32;7.22;;;4.60;;
39740;SDS011;25426;53.478;10.190;2023-07-13T23:18:03;4.57;;;3.72;;
39740;SDS011;25426;53.478;10.190;2023-07-13T23:20:34;6.55;;;4.75;;
39740;SDS011;25426;53.478;10.190;2023-07-13T23:23:08;4.32;;;3.45;;
39740;SDS011;25426;53.478;10.190;2023-07-13T23:25:41;5.90;;;5.30;;
39740;SDS011;25426;53.478;10.190;2023-07-13T23:28:12;5.30;;;4.33;;
39740;SDS011;25426;53.478;10.190;2023-07-13T23:30:44;5.97;;;4.57;;
39740;SDS011;25426;53.478;10.190;2023-07-13T23:33:24;8.50;;;5.70;;
39740;SDS011;25426;53.478;10.190;2023-07-13T23:35:56;5.78;;;4.50;;
39740;SDS011;25426;53.478;10.190;2023-07-13T23:38:28;6.00;;;4.90;;
39740;SDS011;25426;53.478;10.190;2023-07-13T23:40:59;5.75;;;5.13;;
39740;SDS011;25426;53.478;10.190;2023-07-13T23:43:29;6.17;;;4.87;;
39740;SDS011;25426;53.478;10.190;2023-07-13T23:46:00;6.57;;;5.23;;
39740;SDS011;25426;53.478;10.190;2023-07-13T23:48:31;6.50;;;5.90;;
39740;SDS011;25426;53.478;10.190;2023-07-13T23:51:01;7.80;;;6.00;;
39740;SDS011;25426;53.478;10.190;2023-07-13T23:53:32;6.93;;;6.03;;
39740;SDS011;25426;53.478;10.190;2023-07-13T23:56:08;6.57;;;5.30;;
39740;SDS011;25426;53.478;10.190;2023-07-13T23:58:51;7.60;;;6.03;;
